Time;durP1;ratioP1;P1;durP2;ratioP2;P2;SDS_P1;SDS_P2;PMS_P1;PMS_P2;Temp;Humidity;BMP_temperature;BMP_pressure;BME280_temperature;BME280_humidity;BME280_pressure;Samples;Min_cycle;Max_cycle;Signal;HPM_P1;HPM_P2
2022/01/11 00:02:20;;;;;;;29.40;17.90;;;4.70;99.90;;;;;;5074182;28;20468;-61
2022/01/11 00:04:47;;;;;;;22.50;15.83;;;4.60;99.90;;;;;;5074201;28;20457;-61
2022/01/11 00:07:16;;;;;;;24.50;16.37;;;4.50;99.90;;;;;;5074074;28;20459;-61
2022/01/11 00:09:45;;;;;;;26.40;17.23;;;4.60;99.90;;;;;;5073971;28;20483;-62
2022/01/11 00:12:12;;;;;;;25.47;16.37;;;4.60;99.90;;;;;;5074008;28;20518;-61
2022/01/11 00:14:41;;;;;;;28.70;17.80;;;4.70;99.90;;;;;;5073981;28;20448;-61
2022/01/11 00:17:08;;;;;;;20.47;16.47;;;4.50;99.90;;;;;;5073854;28;20571;-61
2022/01/11 00:19:35;;;;;;;19.20;15.83;;;4.40;99.90;;;;;;5073607;28;20548;-61
2022/01/11 00:22:07;;;;;;;26.50;15.50;;;4.30;99.90;;;;;;5073883;28;20471;-61
2022/01/11 00:24:35;;;;;;;25.33;15.83;;;4.40;99.90;;;;;;5073764;28;20474;-61
2022/01/11 00:27:04;;;;;;;23.53;16.27;;;4.50;99.90;;;;;;5073768;28;20448;-61
2022/01/11 00:29:33;;;;;;;19.60;16.63;;;4.70;99.90;;;;;;5073793;28;20474;-61
2022/01/11 00:32:06;;;;;;;23.07;16.77;;;4.70;99.90;;;;;;5073851;28;20464;-61
2022/01/11 00:34:47;;;;;;;24.50;17.53;;;4.40;99.90;;;;;;5073891;28;20578;-61
2022/01/11 00:37:14;;;;;;;26.20;14.60;;;;;;;;;;5073736;28;20475;-61
2022/01/11 00:39:42;;;;;;;25.20;13.90;;;4.30;99.90;;;;;;5073580;28;20877;-61
2022/01/11 00:42:10;;;;;;;24.37;15.70;;;4.20;99.90;;;;;;5073198;28;20473;-61
2022/01/11 00:44:37;;;;;;;19.90;14.40;;;4.10;99.90;;;;;;5073590;28;20440;-61
2022/01/11 00:47:06;;;;;;;20.83;14.93;;;4.10;99.90;;;;;;5073188;28;20452;-61
2022/01/11 00:49:34;;;;;;;30.03;16.20;;;3.90;99.90;;;;;;5073547;28;20432;-61
2022/01/11 00:52:02;;;;;;;22.13;14.50;;;4.00;99.90;;;;;;5073226;28;21035;-61
2022/01/11 00:54:29;;;;;;;23.20;16.30;;;4.30;99.90;;;;;;5073598;28;20823;-62
2022/01/11 00:56:56;;;;;;;23.23;15.77;;;4.40;99.90;;;;;;5073207;28;20951;-62
2022/01/11 00:59:23;;;;;;;24.80;17.80;;;4.50;99.90;;;;;;5073472;28;20559;-62
2022/01/11 01:01:50;;;;;;;27.20;17.50;;;4.60;99.90;;;;;;5073013;28;20467;-62
2022/01/11 01:04:19;;;;;;;25.33;17.43;;;4.60;99.90;;;;;;5073312;28;20550;-62
2022/01/11 01:06:46;;;;;;;19.40;16.67;;;4.60;99.90;;;;;;5073482;28;20452;-62
2022/01/11 01:09:13;;;;;;;29.70;18.40;;;4.60;99.90;;;;;;5073303;28;20463;-62
2022/01/11 01:11:43;;;;;;;25.70;18.83;;;4.40;99.90;;;;;;5072909;28;20473;-62
2022/01/11 01:14:10;;;;;;;31.30;16.33;;;4.30;99.90;;;;;;5073377;28;20507;-62
2022/01/11 01:16:38;;;;;;;35.57;18.07;;;4.30;99.90;;;;;;5072782;28;20484;-62
2022/01/11 01:19:05;;;;;;;28.53;17.30;;;4.30;99.90;;;;;;5072851;28;20486;-62
2022/01/11 01:21:37;;;;;;;23.40;16.27;;;4.40;99.90;;;;;;5072829;28;20546;-62
2022/01/11 01:24:05;;;;;;;25.10;18.10;;;4.40;99.90;;;;;;5073361;28;20516;-62
2022/01/11 01:26:33;;;;;;;24.33;18.67;;;4.40;99.90;;;;;;5073082;28;20531;-62
2022/01/11 01:29:00;;;;;;;27.27;18.60;;;4.40;99.90;;;;;;5073110;28;20558;-62
2022/01/11 01:31:28;;;;;;;26.97;15.10;;;4.30;99.90;;;;;;5072779;28;21074;-62
2022/01/11 01:33:56;;;;;;;26.33;16.57;;;4.40;99.90;;;;;;5073012;28;20451;-62
2022/01/11 01:36:23;;;;;;;20.70;15.33;;;4.40;99.90;;;;;;5072728;28;20960;-62
2022/01/11 01:38:52;;;;;;;24.13;15.77;;;4.40;99.90;;;;;;5073031;28;20487;-62
2022/01/11 01:41:20;;;;;;;21.57;15.83;;;4.40;99.90;;;;;;5072668;28;20448;-61
2022/01/11 01:43:49;;;;;;;21.80;17.03;;;4.30;99.90;;;;;;5072572;28;20491;-62
2022/01/11 01:46:17;;;;;;;23.13;17.67;;;4.40;99.90;;;;;;5073056;28;20482;-62
2022/01/11 01:48:45;;;;;;;30.90;16.90;;;4.30;99.90;;;;;;5073175;28;20448;-62
2022/01/11 01:51:13;;;;;;;21.70;16.30;;;4.20;99.90;;;;;;5072816;28;20468;-62
2022/01/11 01:53:42;;;;;;;23.80;15.30;;;4.30;99.90;;;;;;5072791;28;20547;-62
2022/01/11 01:56:11;;;;;;;22.80;16.63;;;4.40;99.90;;;;;;5075350;28;20448;-62
2022/01/11 01:58:39;;;;;;;22.47;15.97;;;4.40;99.90;;;;;;5076210;28;21021;-62
2022/01/11 02:01:07;;;;;;;20.93;16.00;;;4.50;99.90;;;;;;5076705;28;20826;-62
2022/01/11 02:03:38;;;;;;;24.60;16.00;;;4.60;99.90;;;;;;5076359;28;20483;-62
2022/01/11 02:06:06;;;;;;;19.57;15.40;;;4.70;99.90;;;;;;5076567;28;20479;-62
2022/01/11 02:08:34;;;;;;;22.00;15.90;;;4.60;99.90;;;;;;5076429;28;20440;-62
2022/01/11 02:11:01;;;;;;;19.40;14.60;;;4.60;99.90;;;;;;5076235;28;20560;-62
2022/01/11 02:13:30;;;;;;;20.57;14.90;;;4.60;99.90;;;;;;5076164;28;20969;-62
2022/01/11 02:15:58;;;;;;;22.07;17.00;;;4.30;99.90;;;;;;5075988;28;20486;-62
2022/01/11 02:18:27;;;;;;;20.50;15.70;;;4.10;99.90;;;;;;5076243;28;21065;-62
2022/01/11 02:20:58;;;;;;;26.13;14.67;;;4.00;99.90;;;;;;5076028;28;20461;-62
2022/01/11 02:23:27;;;;;;;23.67;17.00;;;4.10;99.90;;;;;;5075978;28;20958;-62
2022/01/11 02:25:54;;;;;;;22.33;15.67;;;4.30;99.90;;;;;;5075858;28;20448;-62
2022/01/11 02:28:23;;;;;;;30.67;16.70;;;4.40;99.90;;;;;;5075907;28;20450;-62
2022/01/11 02:30:51;;;;;;;27.53;16.80;;;4.30;99.90;;;;;;5075973;28;20517;-62
2022/01/11 02:33:32;;;;;;;22.53;15.80;;;4.30;99.90;;;;;;5075875;28;20456;-62
2022/01/11 02:36:02;;;;;;;22.23;15.30;;;3.80;99.90;;;;;;5075919;28;20448;-62
2022/01/11 02:38:29;;;;;;;19.67;15.03;;;3.70;99.90;;;;;;5075654;28;20890;-62
2022/01/11 02:40:57;;;;;;;27.50;16.80;;;3.60;99.90;;;;;;5076192;28;20530;-62
2022/01/11 02:43:24;;;;;;;26.07;17.07;;;3.60;99.90;;;;;;5075557;28;20456;-62
2022/01/11 02:45:52;;;;;;;25.07;15.90;;;3.80;99.90;;;;;;5075677;28;21005;-62
2022/01/11 02:48:19;;;;;;;22.43;15.60;;;4.10;99.90;;;;;;5075433;28;20448;-62
2022/01/11 02:50:46;;;;;;;25.80;16.80;;;4.10;99.90;;;;;;5075716;28;20471;-62
2022/01/11 02:53:17;;;;;;;24.73;16.00;;;4.20;99.90;;;;;;5075654;28;20455;-62
2022/01/11 02:55:45;;;;;;;21.00;16.83;;;3.90;99.90;;;;;;5075888;28;20455;-62
2022/01/11 02:58:13;;;;;;;21.40;15.93;;;3.80;99.90;;;;;;5075571;28;20448;-62
2022/01/11 03:00:41;;;;;;;25.30;15.53;;;3.80;99.90;;;;;;5075478;28;20531;-62
2022/01/11 03:03:14;;;;;;;20.13;15.90;;;3.90;99.90;;;;;;5075322;28;20448;-62
2022/01/11 03:05:46;;;;;;;21.37;15.33;;;3.80;99.90;;;;;;5075036;28;20448;-62
2022/01/11 03:08:16;;;;;;;22.20;16.20;;;3.80;99.90;;;;;;5075232;28;20413;-62
2022/01/11 03:10:43;;;;;;;20.20;15.30;;;3.80;99.90;;;;;;5074989;28;20456;-62
2022/01/11 03:13:11;;;;;;;21.93;15.90;;;3.90;99.90;;;;;;5075420;28;20440;-62
2022/01/11 03:15:39;;;;;;;24.03;16.20;;;4.10;99.90;;;;;;5074734;28;20479;-62
2022/01/11 03:18:06;;;;;;;25.90;14.40;;;3.90;99.90;;;;;;5074706;28;21042;-62
2022/01/11 03:20:35;;;;;;;19.27;13.93;;;3.80;99.90;;;;;;5075144;28;20570;-62
2022/01/11 03:23:03;;;;;;;22.00;16.90;;;3.90;99.90;;;;;;5075066;28;20448;-62
2022/01/11 03:25:31;;;;;;;23.83;17.50;;;3.70;99.90;;;;;;5075065;28;20803;-62
2022/01/11 03:27:58;;;;;;;25.07;16.43;;;3.70;99.90;;;;;;5074809;28;21010;-62
2022/01/11 03:30:26;;;;;;;23.93;17.13;;;3.80;99.90;;;;;;5074735;28;20468;-62
2022/01/11 03:32:53;;;;;;;22.77;17.60;;;3.90;99.90;;;;;;5074590;28;20939;-62
2022/01/11 03:35:20;;;;;;;22.40;16.67;;;4.00;99.90;;;;;;5075035;28;20470;-62
2022/01/11 03:37:49;;;;;;;22.93;16.70;;;3.90;99.90;;;;;;5074928;28;20447;-62
2022/01/11 03:40:18;;;;;;;22.00;16.40;;;3.90;99.90;;;;;;5074311;28;20488;-62
2022/01/11 03:42:47;;;;;;;21.07;15.47;;;4.00;99.90;;;;;;5074756;28;20440;-62
2022/01/11 03:45:16;;;;;;;23.70;16.10;;;4.10;99.90;;;;;;5074469;28;20992;-62
2022/01/11 03:47:43;;;;;;;21.93;17.23;;;4.20;99.90;;;;;;5074528;28;20574;-62
2022/01/11 03:50:12;;;;;;;22.63;16.77;;;4.30;99.90;;;;;;5074511;28;20444;-62
2022/01/11 03:52:42;;;;;;;24.73;16.70;;;4.30;99.90;;;;;;5074284;28;20935;-62
2022/01/11 03:55:12;;;;;;;20.30;16.40;;;4.30;99.90;;;;;;5074130;28;20965;-62
2022/01/11 03:57:41;;;;;;;27.33;18.23;;;4.30;99.90;;;;;;5074483;28;20977;-62
2022/01/11 04:00:12;;;;;;;24.07;16.93;;;4.20;99.90;;;;;;5073913;28;20483;-62
2022/01/11 04:02:39;;;;;;;24.20;18.13;;;4.30;99.90;;;;;;5074320;28;20547;-62
2022/01/11 04:05:08;;;;;;;26.40;16.77;;;4.30;99.90;;;;;;5074230;28;20445;-62
2022/01/11 04:07:35;;;;;;;25.80;16.90;;;4.30;99.90;;;;;;5074161;28;20523;-62
2022/01/11 04:10:03;;;;;;;21.10;15.30;;;4.30;99.90;;;;;;5073890;28;20444;-62
2022/01/11 04:12:30;;;;;;;28.00;17.10;;;4.30;99.90;;;;;;5074142;28;20542;-62
2022/01/11 04:14:57;;;;;;;25.93;16.13;;;4.40;99.90;;;;;;5073603;28;20535;-63
2022/01/11 04:17:26;;;;;;;30.50;17.43;;;4.30;99.90;;;;;;5073113;28;20473;-62
2022/01/11 04:19:53;;;;;;;28.30;19.30;;;4.30;99.90;;;;;;5073832;28;20476;-62
2022/01/11 04:22:21;;;;;;;24.47;17.87;;;4.30;99.90;;;;;;5073486;28;20472;-62
2022/01/11 04:24:48;;;;;;;20.83;15.70;;;4.30;99.90;;;;;;5074205;28;20444;-62
2022/01/11 04:27:15;;;;;;;22.07;17.00;;;4.40;99.90;;;;;;5073529;28;20452;-62
2022/01/11 04:29:42;;;;;;;24.07;16.67;;;4.40;99.90;;;;;;5073581;28;20927;-62
2022/01/11 04:32:10;;;;;;;24.20;17.97;;;4.30;99.90;;;;;;5073645;28;20475;-62
2022/01/11 04:34:38;;;;;;;27.60;17.07;;;4.20;99.90;;;;;;5074336;28;20449;-62
2022/01/11 04:37:06;;;;;;;22.93;18.03;;;4.30;99.90;;;;;;5073568;28;20455;-62
2022/01/11 04:39:33;;;;;;;25.50;16.50;;;4.30;99.90;;;;;;5073667;28;20578;-62
2022/01/11 04:42:00;;;;;;;23.23;17.87;;;4.30;99.90;;;;;;5074134;28;20460;-62
2022/01/11 04:44:27;;;;;;;24.13;17.83;;;4.20;99.90;;;;;;5073248;28;20819;-62
2022/01/11 04:46:55;;;;;;;26.07;16.80;;;4.20;99.90;;;;;;5073375;28;20468;-62
2022/01/11 04:49:22;;;;;;;25.00;17.17;;;4.40;99.90;;;;;;5073511;28;20915;-62
2022/01/11 04:51:50;;;;;;;28.50;19.23;;;4.30;99.90;;;;;;5073333;28;20546;-62
2022/01/11 04:54:17;;;;;;;33.43;19.30;;;4.40;99.90;;;;;;5073214;28;20501;-62
2022/01/11 04:56:45;;;;;;;31.50;19.70;;;4.30;99.90;;;;;;5073560;28;20444;-62
2022/01/11 04:59:12;;;;;;;28.33;17.50;;;4.30;99.90;;;;;;5073331;28;20881;-62
2022/01/11 05:01:40;;;;;;;27.00;17.87;;;4.30;99.90;;;;;;5073399;28;20499;-62
2022/01/11 05:04:08;;;;;;;29.90;17.80;;;4.20;99.90;;;;;;5073477;28;20558;-63
2022/01/11 05:06:35;;;;;;;31.27;18.10;;;4.20;99.90;;;;;;5073017;28;20444;-62
2022/01/11 05:09:04;;;;;;;35.53;19.73;;;4.30;99.90;;;;;;5073108;28;20454;-62
2022/01/11 05:11:31;;;;;;;32.60;19.67;;;4.30;99.90;;;;;;5073326;28;20826;-62
2022/01/11 05:13:59;;;;;;;25.93;16.57;;;4.40;99.90;;;;;;5072978;28;20443;-63
2022/01/11 05:16:26;;;;;;;24.37;18.80;;;4.30;99.90;;;;;;5072909;28;20563;-62
2022/01/11 05:18:53;;;;;;;23.20;17.23;;;4.30;99.90;;;;;;5073192;28;20437;-63
2022/01/11 05:21:21;;;;;;;23.50;17.90;;;4.30;99.90;;;;;;5073004;28;20574;-62
2022/01/11 05:23:48;;;;;;;29.00;18.20;;;4.30;99.90;;;;;;5073190;28;20444;-62
2022/01/11 05:26:16;;;;;;;22.10;17.70;;;4.20;99.90;;;;;;5073080;28;20487;-62
2022/01/11 05:28:43;;;;;;;29.00;18.43;;;4.20;99.90;;;;;;5073735;28;20452;-62
2022/01/11 05:31:11;;;;;;;27.73;17.50;;;4.30;99.90;;;;;;5076876;28;20464;-62
2022/01/11 05:33:38;;;;;;;24.53;19.50;;;4.20;99.90;;;;;;5076874;28;20758;-62
2022/01/11 05:36:05;;;;;;;23.70;18.80;;;4.10;99.90;;;;;;5076995;28;20448;-62
2022/01/11 05:38:33;;;;;;;24.87;18.20;;;4.10;99.90;;;;;;5076693;28;20943;-62
2022/01/11 05:41:00;;;;;;;31.03;17.57;;;4.20;99.90;;;;;;5076789;28;20488;-62
2022/01/11 05:43:28;;;;;;;26.73;17.27;;;4.20;99.90;;;;;;5076705;28;20478;-62
2022/01/11 05:45:55;;;;;;;24.53;16.83;;;4.20;99.90;;;;;;5076567;28;20448;-62
2022/01/11 05:48:22;;;;;;;25.67;18.40;;;4.20;99.90;;;;;;5076344;28;20452;-63
2022/01/11 05:50:54;;;;;;;23.90;19.40;;;4.10;99.90;;;;;;5076864;28;20939;-62
2022/01/11 05:53:21;;;;;;;25.23;17.43;;;4.20;99.90;;;;;;5076552;28;20448;-62
2022/01/11 05:55:48;;;;;;;27.53;20.23;;;4.20;99.90;;;;;;5076248;28;20454;-62
2022/01/11 05:58:16;;;;;;;31.43;19.10;;;4.20;99.90;;;;;;5076794;28;20435;-62
2022/01/11 06:00:44;;;;;;;33.67;21.67;;;4.20;99.90;;;;;;5076127;28;21006;-62
2022/01/11 06:03:11;;;;;;;25.27;18.00;;;4.20;99.90;;;;;;5076174;28;20448;-62
2022/01/11 06:05:39;;;;;;;25.03;18.67;;;4.10;99.90;;;;;;5076348;28;20448;-62
2022/01/11 06:08:07;;;;;;;23.40;17.80;;;4.20;99.90;;;;;;5076484;28;20452;-62
2022/01/11 06:10:34;;;;;;;27.00;18.10;;;4.20;99.90;;;;;;5076236;28;20464;-62
2022/01/11 06:13:01;;;;;;;28.40;18.63;;;4.10;99.90;;;;;;5075935;28;21017;-62
2022/01/11 06:15:30;;;;;;;26.37;18.50;;;4.30;99.90;;;;;;5076087;28;20570;-62
2022/01/11 06:17:59;;;;;;;24.70;19.00;;;4.20;99.90;;;;;;5075919;28;20547;-62
2022/01/11 06:20:26;;;;;;;25.40;17.70;;;4.30;99.90;;;;;;5075752;28;21021;-62
2022/01/11 06:22:54;;;;;;;25.47;18.47;;;4.20;99.90;;;;;;5076065;28;20444;-62
2022/01/11 06:25:22;;;;;;;30.30;18.77;;;4.30;99.90;;;;;;5075794;28;20471;-62
2022/01/11 06:27:49;;;;;;;36.80;21.67;;;4.20;99.90;;;;;;5076000;28;20467;-62
2022/01/11 06:30:18;;;;;;;32.03;20.33;;;4.10;99.90;;;;;;5075962;28;20447;-62
2022/01/11 06:32:46;;;;;;;35.60;20.10;;;4.20;99.90;;;;;;5075565;28;20936;-62
2022/01/11 06:35:16;;;;;;;23.93;17.37;;;4.30;99.90;;;;;;5075736;28;20497;-62
2022/01/11 06:37:44;;;;;;;25.43;19.17;;;4.30;99.90;;;;;;5075932;28;20435;-62
2022/01/11 06:40:13;;;;;;;23.53;18.07;;;4.40;99.90;;;;;;5075498;28;20490;-62
2022/01/11 06:42:40;;;;;;;27.43;20.70;;;4.40;99.90;;;;;;5075417;28;20543;-62
2022/01/11 06:45:08;;;;;;;26.90;17.83;;;4.40;99.90;;;;;;5075363;28;20954;-62
2022/01/11 06:47:35;;;;;;;30.83;19.60;;;4.50;99.90;;;;;;5075590;28;20462;-62
2022/01/11 06:50:02;;;;;;;31.27;19.63;;;4.50;99.90;;;;;;5075471;28;20476;-62
2022/01/11 06:52:31;;;;;;;24.07;17.70;;;4.50;99.90;;;;;;5075349;28;20737;-62
2022/01/11 06:54:58;;;;;;;26.13;19.03;;;4.40;99.90;;;;;;5075085;28;20444;-62
2022/01/11 06:57:27;;;;;;;25.67;18.07;;;4.30;99.90;;;;;;5075049;28;20455;-62
2022/01/11 06:59:54;;;;;;;23.30;18.50;;;4.40;99.90;;;;;;5075246;28;20821;-62
2022/01/11 07:02:21;;;;;;;24.67;16.33;;;4.40;99.90;;;;;;5075439;28;20472;-62
2022/01/11 07:04:49;;;;;;;25.67;17.40;;;4.40;99.90;;;;;;5074820;28;20949;-62
2022/01/11 07:07:16;;;;;;;23.30;17.57;;;4.30;99.90;;;;;;5075232;28;20452;-62
2022/01/11 07:09:45;;;;;;;25.90;20.13;;;4.30;99.90;;;;;;5075323;28;20478;-62
2022/01/11 07:12:12;;;;;;;26.53;17.73;;;4.30;99.90;;;;;;5075056;28;20470;-61
2022/01/11 07:14:39;;;;;;;26.50;17.80;;;4.10;99.90;;;;;;5075009;28;20451;-61
2022/01/11 07:17:06;;;;;;;30.50;19.20;;;4.00;99.90;;;;;;5074817;28;20476;-61
2022/01/11 07:19:34;;;;;;;27.20;18.80;;;3.90;99.90;;;;;;5074997;28;20508;-61
2022/01/11 07:22:01;;;;;;;28.67;18.03;;;4.00;99.90;;;;;;5074821;28;21045;-61
2022/01/11 07:24:29;;;;;;;29.57;18.90;;;4.10;99.90;;;;;;5074645;28;20488;-61
2022/01/11 07:26:58;;;;;;;22.83;18.90;;;4.30;99.90;;;;;;5074957;28;20480;-61
2022/01/11 07:29:25;;;;;;;25.00;17.20;;;4.30;99.90;;;;;;5074819;28;20798;-61
2022/01/11 07:31:53;;;;;;;27.20;18.37;;;4.30;99.90;;;;;;5074737;28;20457;-61
2022/01/11 07:34:20;;;;;;;20.07;17.00;;;4.20;99.90;;;;;;5074865;28;20440;-61
2022/01/11 07:36:47;;;;;;;31.80;18.20;;;4.30;99.90;;;;;;5074407;28;20444;-61
2022/01/11 07:39:14;;;;;;;26.73;18.40;;;4.40;99.90;;;;;;5074649;28;20440;-61
2022/01/11 07:41:42;;;;;;;25.17;17.30;;;4.40;99.90;;;;;;5074343;28;20564;-61
2022/01/11 07:44:11;;;;;;;17.90;15.67;;;4.40;99.90;;;;;;5073848;28;20800;-61
2022/01/11 07:46:39;;;;;;;20.80;16.43;;;4.40;99.90;;;;;;5074126;28;20492;-61
2022/01/11 07:49:07;;;;;;;26.03;16.80;;;4.40;99.90;;;;;;5074208;28;20938;-61
2022/01/11 07:51:34;;;;;;;25.40;17.70;;;4.40;99.90;;;;;;5074074;28;20460;-61
2022/01/11 07:54:01;;;;;;;20.07;16.40;;;4.30;99.90;;;;;;5073877;28;20522;-61
2022/01/11 07:56:28;;;;;;;21.17;16.00;;;4.50;99.90;;;;;;5074473;28;20449;-61
2022/01/11 07:58:56;;;;;;;25.43;17.07;;;4.50;99.90;;;;;;5074248;28;20449;-61
2022/01/11 08:01:24;;;;;;;26.43;18.13;;;4.60;99.90;;;;;;5073919;28;20571;-61
2022/01/11 08:03:51;;;;;;;24.40;17.80;;;4.40;99.90;;;;;;5073983;28;20807;-61
2022/01/11 08:06:19;;;;;;;20.50;15.97;;;4.50;99.90;;;;;;5074201;28;20451;-61
2022/01/11 08:08:46;;;;;;;24.27;18.13;;;4.50;99.90;;;;;;5074047;28;20476;-61
2022/01/11 08:11:13;;;;;;;24.07;17.77;;;4.40;99.90;;;;;;5074118;28;20492;-63
2022/01/11 08:13:41;;;;;;;27.97;17.83;;;4.60;99.90;;;;;;5073450;28;20448;-61
2022/01/11 08:16:08;;;;;;;28.07;19.50;;;4.50;99.90;;;;;;5073499;28;20567;-61
2022/01/11 08:18:36;;;;;;;24.50;19.30;;;4.60;99.90;;;;;;5074125;28;20900;-61
2022/01/11 08:21:03;;;;;;;25.20;17.63;;;4.60;99.90;;;;;;5073794;28;20629;-61
2022/01/11 08:23:31;;;;;;;23.47;16.83;;;4.60;99.90;;;;;;5073744;28;20450;-61
2022/01/11 08:25:58;;;;;;;24.97;17.87;;;4.70;99.90;;;;;;5073673;28;20555;-61
2022/01/11 08:28:25;;;;;;;28.70;17.90;;;4.60;99.90;;;;;;5073688;28;20798;-61
2022/01/11 08:30:52;;;;;;;28.67;18.10;;;4.70;99.90;;;;;;5073172;28;21005;-61
2022/01/11 08:33:19;;;;;;;21.27;17.53;;;4.70;99.90;;;;;;5073486;28;20452;-61
2022/01/11 08:35:48;;;;;;;30.17;20.03;;;4.60;99.90;;;;;;5073685;28;20535;-62
2022/01/11 08:38:15;;;;;;;29.57;18.40;;;4.80;99.90;;;;;;5073507;28;20449;-62
2022/01/11 08:40:42;;;;;;;24.50;18.63;;;4.70;99.90;;;;;;5073015;28;21061;-62
2022/01/11 08:43:10;;;;;;;33.80;21.60;;;4.40;99.90;;;;;;5073255;28;20649;-61
2022/01/11 08:45:37;;;;;;;26.47;18.87;;;4.50;99.90;;;;;;5072904;28;20456;-62
2022/01/11 08:48:05;;;;;;;25.37;18.13;;;4.50;99.90;;;;;;5073425;28;20490;-61
2022/01/11 08:50:33;;;;;;;24.97;19.63;;;4.50;99.90;;;;;;5073471;28;20471;-62
2022/01/11 08:53:02;;;;;;;25.73;17.90;;;4.60;99.90;;;;;;5072872;28;21038;-61
2022/01/11 08:55:29;;;;;;;30.03;19.90;;;4.30;99.90;;;;;;5073199;28;20451;-61
2022/01/11 08:57:57;;;;;;;29.17;20.17;;;4.60;99.90;;;;;;5073161;28;20818;-62
2022/01/11 09:00:26;;;;;;;32.27;18.50;;;4.60;99.90;;;;;;5072819;28;20469;-62
2022/01/11 09:02:54;;;;;;;25.27;18.33;;;4.50;99.90;;;;;;5073129;28;20520;-62
2022/01/11 09:05:22;;;;;;;30.03;19.90;;;4.60;99.90;;;;;;5072601;28;20441;-62
2022/01/11 09:07:50;;;;;;;33.83;19.30;;;4.60;99.90;;;;;;5072956;28;20448;-62
2022/01/11 09:10:20;;;;;;;26.07;20.10;;;4.70;99.90;;;;;;5072943;28;20459;-62
2022/01/11 09:12:47;;;;;;;19.17;14.63;;;4.90;99.90;;;;;;5072883;28;20457;-62
2022/01/11 09:15:15;;;;;;;22.40;17.57;;;4.90;99.90;;;;;;5071469;28;20544;-62
2022/01/11 09:17:44;;;;;;;26.93;16.43;;;5.00;99.90;;;;;;5072919;28;20460;-62
2022/01/11 09:20:13;;;;;;;22.17;13.80;;;5.00;99.90;;;;;;5072698;28;20448;-64
2022/01/11 09:22:41;;;;;;;21.80;15.23;;;4.80;99.90;;;;;;5072718;28;21030;-62
2022/01/11 09:25:10;;;;;;;19.20;15.20;;;4.70;99.90;;;;;;5072770;28;20966;-61
2022/01/11 09:27:38;;;;;;;20.70;13.97;;;4.70;99.90;;;;;;5072539;28;20974;-61
2022/01/11 09:30:08;;;;;;;23.07;15.40;;;4.70;99.90;;;;;;5072906;28;20444;-61
2022/01/11 09:32:35;;;;;;;20.20;14.17;;;5.00;99.90;;;;;;5073071;28;20868;-63
2022/01/11 09:35:03;;;;;;;22.70;14.93;;;5.00;99.90;;;;;;5072982;28;20452;-62
2022/01/11 09:37:31;;;;;;;20.57;13.83;;;5.00;99.90;;;;;;5072726;28;21022;-62
2022/01/11 09:39:59;;;;;;;19.50;14.80;;;4.90;99.90;;;;;;5072792;28;20451;-62
2022/01/11 09:42:28;;;;;;;17.70;13.37;;;4.80;99.90;;;;;;5072794;28;20487;-62
2022/01/11 09:44:58;;;;;;;18.73;13.80;;;4.60;99.90;;;;;;5072889;28;20892;-62
2022/01/11 09:47:25;;;;;;;26.90;16.30;;;4.60;99.90;;;;;;5073002;28;20456;-62
2022/01/11 09:49:52;;;;;;;21.40;15.90;;;4.40;99.90;;;;;;5072245;28;20551;-62
2022/01/11 09:52:20;;;;;;;29.70;17.23;;;4.40;99.90;;;;;;5072175;28;20464;-62
2022/01/11 09:54:49;;;;;;;19.07;15.10;;;4.40;99.90;;;;;;5072279;28;20480;-62
2022/01/11 09:57:16;;;;;;;24.20;16.90;;;4.60;99.90;;;;;;5072432;28;20480;-62
2022/01/11 09:59:43;;;;;;;21.60;14.53;;;4.70;99.90;;;;;;5072361;28;20565;-62
2022/01/11 10:02:14;;;;;;;23.83;17.20;;;4.70;99.90;;;;;;5072081;28;20484;-62
2022/01/11 10:04:41;;;;;;;23.07;15.60;;;4.60;99.90;;;;;;5072558;28;20444;-62
2022/01/11 10:07:10;;;;;;;25.43;17.13;;;4.70;99.90;;;;;;5072330;28;20452;-62
2022/01/11 10:09:44;;;;;;;24.83;15.30;;;4.80;99.90;;;;;;5072587;28;20448;-62
2022/01/11 10:12:13;;;;;;;23.93;15.07;;;4.90;99.90;;;;;;5072408;28;20470;-63
2022/01/11 10:14:47;;;;;;;19.77;15.27;;;4.90;99.90;;;;;;5072022;28;20539;-61
2022/01/11 10:17:19;;;;;;;20.90;14.83;;;4.90;99.90;;;;;;5074808;28;20467;-61
2022/01/11 10:19:47;;;;;;;16.00;13.67;;;4.90;99.90;;;;;;5075709;28;20452;-61
2022/01/11 10:22:18;;;;;;;20.50;15.17;;;5.00;99.90;;;;;;5075568;28;20491;-62
2022/01/11 10:24:46;;;;;;;21.73;15.60;;;5.20;99.90;;;;;;5075811;28;20547;-61
2022/01/11 10:27:16;;;;;;;19.20;14.13;;;5.20;99.90;;;;;;5075817;28;20559;-63
2022/01/11 10:29:46;;;;;;;20.43;14.57;;;5.40;99.90;;;;;;5075188;28;20943;-61
2022/01/11 10:32:24;;;;;;;18.97;14.93;;;5.50;99.90;;;;;;5075610;28;20552;-62
2022/01/11 10:34:53;;;;;;;22.50;14.33;;;5.80;99.90;;;;;;5075503;28;20417;-62
2022/01/11 10:37:30;;;;;;;16.80;12.97;;;5.80;99.90;;;;;;5075816;28;20455;-62
2022/01/11 10:40:14;;;;;;;16.80;13.00;;;5.80;99.90;;;;;;5075754;28;20432;-62
2022/01/11 10:42:45;;;;;;;18.37;14.00;;;5.60;99.90;;;;;;5075698;28;20472;-62
2022/01/11 10:45:14;;;;;;;16.73;13.47;;;5.70;99.90;;;;;;5075577;28;20433;-62
2022/01/11 10:47:46;;;;;;;16.60;13.13;;;5.70;99.90;;;;;;5075358;28;20457;-62
2022/01/11 10:50:19;;;;;;;18.77;13.17;;;5.80;99.90;;;;;;5075217;28;20903;-62
2022/01/11 10:52:47;;;;;;;16.33;13.90;;;6.00;99.90;;;;;;5075243;28;20425;-62
2022/01/11 10:55:16;;;;;;;18.90;13.17;;;;;;;;;;5075601;28;20517;-63
2022/01/11 10:57:44;;;;;;;18.23;13.63;;;6.10;99.90;;;;;;5075334;28;20448;-63
2022/01/11 11:00:18;;;;;;;17.30;13.83;;;6.00;99.90;;;;;;5075425;28;20440;-62
2022/01/11 11:02:50;;;;;;;19.83;13.53;;;6.20;99.90;;;;;;5075318;28;20468;-62
2022/01/11 11:05:23;;;;;;;17.63;13.40;;;6.10;99.90;;;;;;5075129;28;20428;-62
2022/01/11 11:08:09;;;;;;;16.80;13.00;;;6.10;99.90;;;;;;5074824;28;20945;-62
2022/01/11 11:10:40;;;;;;;17.80;14.37;;;6.10;99.90;;;;;;5074824;28;20592;-62
2022/01/11 11:13:08;;;;;;;15.80;13.00;;;6.10;99.90;;;;;;5074666;28;20512;-62
2022/01/11 11:15:38;;;;;;;17.03;13.23;;;6.30;99.90;;;;;;5074668;28;20861;-62
2022/01/11 11:18:20;;;;;;;17.43;13.67;;;6.20;99.90;;;;;;5075068;28;20460;-62
2022/01/11 11:20:48;;;;;;;20.37;12.50;;;6.10;99.90;;;;;;5075086;28;20475;-62
2022/01/11 11:23:17;;;;;;;16.03;12.40;;;6.30;99.90;;;;;;5074761;28;20483;-63
2022/01/11 11:25:44;;;;;;;21.43;14.40;;;6.60;99.90;;;;;;5074487;28;20448;-62
2022/01/11 11:28:11;;;;;;;17.43;13.10;;;6.50;99.90;;;;;;5074599;28;20531;-62
2022/01/11 11:30:39;;;;;;;16.00;12.40;;;6.60;99.90;;;;;;5074572;28;20825;-62
2022/01/11 11:33:08;;;;;;;16.40;12.77;;;;;;;;;;5074615;28;20444;-62
2022/01/11 11:35:35;;;;;;;16.10;12.43;;;6.10;99.90;;;;;;5074700;28;20448;-62
2022/01/11 11:38:05;;;;;;;14.43;11.50;;;5.80;99.90;;;;;;5074544;28;20483;-62
2022/01/11 11:40:33;;;;;;;17.33;12.43;;;6.00;99.90;;;;;;5074390;28;20475;-61
2022/01/11 11:43:03;;;;;;;19.23;13.57;;;6.00;99.90;;;;;;5074645;28;20587;-63
2022/01/11 11:45:33;;;;;;;14.90;12.80;;;6.10;99.90;;;;;;5074369;28;20539;-61
2022/01/11 11:48:06;;;;;;;20.00;12.90;;;6.20;99.90;;;;;;5074303;28;20459;-62
2022/01/11 11:50:46;;;;;;;16.37;10.77;;;6.30;99.90;;;;;;5073851;28;20503;-63
2022/01/11 11:53:22;;;;;;;15.50;11.80;;;6.20;99.90;;;;;;5074428;28;20431;-62
2022/01/11 11:55:49;;;;;;;15.70;13.00;;;6.20;99.90;;;;;;5074228;28;20915;-62
2022/01/11 11:58:21;;;;;;;16.50;13.03;;;6.10;99.90;;;;;;5073954;28;20935;-62
2022/01/11 12:00:50;;;;;;;16.30;12.77;;;6.40;99.90;;;;;;5074103;28;20495;-62
2022/01/11 12:03:24;;;;;;;14.33;11.57;;;6.30;99.90;;;;;;5073730;28;20904;-62
2022/01/11 12:05:55;;;;;;;15.80;10.60;;;6.20;99.90;;;;;;5074529;28;20466;-62
2022/01/11 12:08:30;;;;;;;13.03;10.30;;;6.20;99.90;;;;;;5073962;28;20452;-61
2022/01/11 12:11:00;;;;;;;11.07;8.77;;;6.20;99.90;;;;;;5073320;28;20495;-62
2022/01/11 12:13:46;;;;;;;9.73;6.93;;;6.30;99.90;;;;;;5072969;28;20445;-62
2022/01/11 12:16:41;;;;;;;8.57;7.60;;;6.60;99.90;;;;;;5073269;28;20503;-62
2022/01/11 12:19:11;;;;;;;8.10;7.27;;;6.60;99.90;;;;;;5067281;28;20467;-61
2022/01/11 12:22:05;;;;;;;6.57;5.97;;;6.80;99.90;;;;;;5073158;28;20490;-62
2022/01/11 12:24:37;;;;;;;6.30;5.67;;;6.70;99.90;;;;;;5073028;28;20479;-62
2022/01/11 12:27:06;;;;;;;21.80;7.77;;;6.30;99.90;;;;;;5073217;28;20832;-62
2022/01/11 12:29:33;;;;;;;8.30;5.10;;;6.40;99.90;;;;;;5073331;28;20461;-62
2022/01/11 12:32:04;;;;;;;7.37;6.67;;;6.60;99.90;;;;;;5073041;28;20828;-62
2022/01/11 12:34:58;;;;;;;5.07;4.57;;;6.60;99.90;;;;;;5073204;28;20484;-62
2022/01/11 12:37:32;;;;;;;10.23;6.27;;;6.50;99.90;;;;;;5073512;28;20523;-62
2022/01/11 12:40:13;;;;;;;6.33;4.70;;;6.40;99.90;;;;;;5072546;28;20998;-62
2022/01/11 12:42:57;;;;;;;14.23;6.53;;;6.20;99.90;;;;;;5073194;28;20872;-62
2022/01/11 12:45:58;;;;;;;8.63;5.53;;;6.20;99.90;;;;;;5073216;28;20445;-62
2022/01/11 12:49:00;;;;;;;6.70;5.90;;;6.30;99.90;;;;;;5073323;28;20517;-62